Time;durP1;ratioP1;P1;durP2;ratioP2;P2;SDS_P1;SDS_P2;PMS_P1;PMS_P2;Temp;Humidity;BMP_temperature;BMP_pressure;BME280_temperature;BME280_humidity;BME280_pressure;Samples;Min_cycle;Max_cycle;Signal;HPM_P1;HPM_P2
2023/07/03 00:02:18;;;;;;;20.02;11.20;;;;;17.50;98230.00;;;;5029748;28;20045;-72
2023/07/03 00:04:48;;;;;;;15.85;9.32;;;;;17.50;98230.00;;;;5014525;28;20092;-72
2023/07/03 00:07:15;;;;;;;19.85;11.15;;;;;17.50;98231.00;;;;5029923;28;20100;-72
2023/07/03 00:09:42;;;;;;;17.58;10.18;;;;;17.50;98235.00;;;;5029033;28;20209;-72
2023/07/03 00:12:10;;;;;;;18.85;11.00;;;;;17.30;98230.00;;;;5029499;28;20069;-72
2023/07/03 00:14:38;;;;;;;17.90;11.05;;;;;17.20;98231.00;;;;5029580;28;20076;-72
2023/07/03 00:17:07;;;;;;;21.15;10.65;;;;;17.20;98221.00;;;;5013022;28;20057;-74
2023/07/03 00:19:34;;;;;;;16.50;10.15;;;;;17.20;98235.00;;;;5013670;28;20046;-72
2023/07/03 00:22:01;;;;;;;25.52;11.95;;;;;17.10;98229.00;;;;5014243;28;20045;-72
2023/07/03 00:24:29;;;;;;;21.67;10.93;;;;;17.10;98224.00;;;;5014161;28;20034;-72
2023/07/03 00:26:56;;;;;;;17.65;10.35;;;;;17.00;98225.00;;;;5014179;28;20041;-72
2023/07/03 00:29:23;;;;;;;22.58;10.05;;;;;17.00;98222.00;;;;5028648;28;20077;-72
2023/07/03 00:31:50;;;;;;;19.90;10.60;;;;;17.00;98221.00;;;;5012608;28;20056;-72
2023/07/03 00:34:18;;;;;;;18.15;10.85;;;;;16.90;98222.00;;;;5012663;28;20068;-72
2023/07/03 00:36:46;;;;;;;21.10;11.00;;;;;16.80;98224.00;;;;5012792;28;20089;-72
2023/07/03 00:39:14;;;;;;;21.20;10.25;;;;;16.60;98218.00;;;;5028185;28;20076;-72
2023/07/03 00:41:42;;;;;;;20.50;10.88;;;;;16.50;98219.00;;;;5012653;28;20523;-72
2023/07/03 00:44:15;;;;;;;18.67;10.52;;;;;16.60;98221.00;;;;5013818;28;20092;-74
2023/07/03 00:46:45;;;;;;;19.17;10.73;;;;;16.60;98218.00;;;;5013908;28;20597;-74
2023/07/03 00:49:12;;;;;;;20.95;11.40;;;;;16.60;98223.00;;;;5011891;28;20056;-75
2023/07/03 00:51:41;;;;;;;19.33;10.60;;;;;16.60;98220.00;;;;5012631;28;20144;-74
2023/07/03 00:54:08;;;;;;;17.48;9.85;;;;;16.70;98222.00;;;;5013704;28;20042;-74
2023/07/03 00:56:35;;;;;;;18.10;11.02;;;;;16.70;98215.00;;;;5029162;28;20093;-73
2023/07/03 00:59:03;;;;;;;23.70;11.88;;;;;16.60;98218.00;;;;5013037;28;20045;-74
2023/07/03 01:01:39;;;;;;;22.25;11.27;;;;;16.50;98223.00;;;;5012567;28;20060;-74
2023/07/03 01:04:12;;;;;;;16.52;10.20;;;;;16.50;98217.00;;;;5012312;28;20140;-74
2023/07/03 01:06:44;;;;;;;19.95;10.23;;;;;16.60;98221.00;;;;5012383;28;20046;-74
2023/07/03 01:09:13;;;;;;;19.08;10.15;;;;;16.50;98222.00;;;;5028140;28;20070;-74
2023/07/03 01:11:42;;;;;;;16.27;10.60;;;;;16.60;98224.00;;;;5012075;28;20136;-74
2023/07/03 01:14:10;;;;;;;20.05;11.10;;;;;16.60;98229.00;;;;5028329;28;20088;-74
2023/07/03 01:16:37;;;;;;;21.13;10.98;;;;;16.40;98221.00;;;;5013315;28;20040;-74
2023/07/03 01:19:10;;;;;;;21.25;10.52;;;;;16.30;98222.00;;;;5012857;28;20046;-74
2023/07/03 01:21:52;;;;;;;18.75;10.90;;;;;16.20;98217.00;;;;5028485;28;20053;-74
2023/07/03 01:24:29;;;;;;;22.02;11.43;;;;;16.20;98218.00;;;;5012953;28;20045;-74
2023/07/03 01:26:57;;;;;;;18.20;10.70;;;;;16.30;98221.00;;;;5013171;28;20125;-74
2023/07/03 01:29:24;;;;;;;19.05;10.82;;;;;16.20;98217.00;;;;5027746;28;20068;-74
2023/07/03 01:31:52;;;;;;;18.75;10.90;;;;;16.10;98214.00;;;;5011774;28;20061;-73
2023/07/03 01:34:19;;;;;;;24.77;12.00;;;;;16.00;98219.00;;;;5028054;28;20042;-74
2023/07/03 01:36:46;;;;;;;19.00;10.57;;;;;16.00;98211.00;;;;5012998;28;20069;-74
2023/07/03 01:39:13;;;;;;;22.02;10.32;;;;;16.00;98229.00;;;;5010922;28;20594;-74
2023/07/03 01:41:40;;;;;;;20.83;11.50;;;;;16.10;98225.00;;;;5011750;28;20042;-72
2023/07/03 01:44:07;;;;;;;18.35;10.52;;;;;16.10;98223.00;;;;5027987;28;20057;-74
2023/07/03 01:46:34;;;;;;;25.00;11.15;;;;;16.20;98231.00;;;;5012837;28;20038;-73
2023/07/03 01:49:01;;;;;;;21.65;10.82;;;;;16.20;98227.00;;;;5027395;28;20049;-74
2023/07/03 01:51:48;;;;;;;20.05;11.52;;;;;16.30;98231.00;;;;5012124;28;20128;-74
2023/07/03 01:54:27;;;;;;;17.90;10.25;;;;;16.40;98224.00;;;;5011293;28;20049;-72
2023/07/03 01:56:57;;;;;;;20.45;11.40;;;;;16.20;98224.00;;;;5011380;28;20069;-72
2023/07/03 01:59:29;;;;;;;20.05;10.60;;;;;16.00;98224.00;;;;5012135;28;20469;-72
2023/07/03 02:02:11;;;;;;;24.08;11.10;;;;;15.90;98226.00;;;;5011233;28;20053;-73
2023/07/03 02:04:42;;;;;;;22.52;11.23;;;;;15.80;98215.00;;;;5011198;28;20045;-73
2023/07/03 02:07:11;;;;;;;21.02;10.68;;;;;15.80;98224.00;;;;5011323;28;20050;-71
2023/07/03 02:09:39;;;;;;;20.75;10.35;;;;;15.80;98221.00;;;;5010450;28;20050;-73
2023/07/03 02:12:09;;;;;;;22.48;11.20;;;;;15.90;98221.00;;;;4995317;28;20050;-71
2023/07/03 02:14:38;;;;;;;21.63;10.82;;;;;16.00;98214.00;;;;5027292;28;20125;-71
2023/07/03 02:17:06;;;;;;;25.42;11.23;;;;;16.00;98229.00;;;;5027635;28;20053;-71
2023/07/03 02:19:33;;;;;;;21.48;11.35;;;;;15.90;98226.00;;;;5027098;28;20096;-72
2023/07/03 02:22:00;;;;;;;19.75;11.23;;;;;15.70;98226.00;;;;5011205;28;20057;-71
2023/07/03 02:24:27;;;;;;;18.75;10.82;;;;;15.50;98229.00;;;;5012259;28;20045;-74
2023/07/03 02:26:54;;;;;;;21.15;11.68;;;;;15.50;98227.00;;;;5011136;28;20051;-71
2023/07/03 02:29:21;;;;;;;18.50;11.50;;;;;15.50;98215.00;;;;5011846;28;20088;-72
2023/07/03 02:31:48;;;;;;;22.02;11.65;;;;;15.40;98228.00;;;;5012282;28;20049;-71
2023/07/03 02:34:14;;;;;;;22.27;11.48;;;;;15.50;98232.00;;;;5012339;28;20069;-70
2023/07/03 02:36:41;;;;;;;21.10;10.65;;;;;15.50;98232.00;;;;5011117;28;20057;-71
2023/07/03 02:39:09;;;;;;;22.17;12.18;;;;;15.60;98229.00;;;;5010253;28;20096;-71
2023/07/03 02:41:36;;;;;;;22.52;11.60;;;;;15.70;98222.00;;;;5010810;28;20050;-72
2023/07/03 02:44:02;;;;;;;22.33;11.55;;;;;15.70;98224.00;;;;5012848;28;20046;-71
2023/07/03 02:46:31;;;;;;;24.33;11.45;;;;;15.70;98232.00;;;;4999565;28;20061;-73
2023/07/03 02:48:58;;;;;;;19.48;10.90;;;;;15.70;98227.00;;;;5016890;28;20050;-77
2023/07/03 02:51:25;;;;;;;18.10;10.85;;;;;15.60;98228.00;;;;5018023;28;20141;-71
2023/07/03 02:53:55;;;;;;;17.38;10.70;;;;;15.70;98228.00;;;;5034543;28;20045;-73
2023/07/03 02:56:22;;;;;;;19.95;12.05;;;;;15.70;98226.00;;;;5019705;28;20048;-71
2023/07/03 02:58:48;;;;;;;20.20;11.30;;;;;15.70;98233.00;;;;5033562;28;20050;-72
2023/07/03 03:01:21;;;;;;;22.63;11.85;;;;;15.70;98222.00;;;;5001679;28;20149;-71
2023/07/03 03:03:49;;;;;;;28.42;17.27;;;;;15.80;98230.00;;;;5020704;28;20085;-72
2023/07/03 03:06:16;;;;;;;20.77;11.45;;;;;15.80;98231.00;;;;5004652;28;20052;-71
2023/07/03 03:08:43;;;;;;;22.88;10.63;;;;;15.80;98237.00;;;;5036927;28;20037;-71
2023/07/03 03:11:09;;;;;;;23.02;12.45;;;;;15.80;98232.00;;;;5036374;28;20058;-71
2023/07/03 03:13:37;;;;;;;19.17;11.23;;;;;15.80;98239.00;;;;5018956;28;20461;-70
2023/07/03 03:16:04;;;;;;;16.73;10.95;;;;;15.80;98237.00;;;;5035403;28;20080;-71
2023/07/03 03:18:30;;;;;;;20.50;11.27;;;;;15.80;98234.00;;;;5020365;28;20140;-71
2023/07/03 03:20:57;;;;;;;21.17;11.23;;;;;15.80;98239.00;;;;5033998;28;20041;-71
2023/07/03 03:23:23;;;;;;;17.30;10.93;;;;;15.90;98238.00;;;;5018107;28;20054;-72
2023/07/03 03:25:50;;;;;;;18.83;10.90;;;;;15.90;98247.00;;;;5034121;28;20453;-72
2023/07/03 03:28:17;;;;;;;17.33;10.40;;;;;16.00;98245.00;;;;5017460;28;20522;-72
2023/07/03 03:30:45;;;;;;;23.10;11.57;;;;;16.00;98249.00;;;;5016726;28;20049;-72
2023/07/03 03:33:12;;;;;;;17.08;10.18;;;;;16.10;98240.00;;;;5016442;28;20076;-71
2023/07/03 03:35:39;;;;;;;20.02;11.38;;;;;16.10;98237.00;;;;4999943;28;20053;-71
2023/07/03 03:38:06;;;;;;;18.35;11.05;;;;;16.20;98239.00;;;;5016187;28;20092;-72
2023/07/03 03:40:32;;;;;;;16.80;10.88;;;;;16.20;98236.00;;;;4999408;28;20053;-73
2023/07/03 03:42:59;;;;;;;20.50;10.73;;;;;16.20;98247.00;;;;5016977;28;20488;-72
2023/07/03 03:45:26;;;;;;;16.88;10.93;;;;;16.10;98245.00;;;;5014116;28;20565;-73
2023/07/03 03:47:52;;;;;;;23.38;11.60;;;;;16.20;98246.00;;;;5015216;28;20124;-72
2023/07/03 03:50:19;;;;;;;22.92;11.13;;;;;16.20;98244.00;;;;4997911;28;20057;-73
2023/07/03 03:52:46;;;;;;;18.42;11.35;;;;;16.10;98235.00;;;;5030829;28;20461;-72
2023/07/03 03:55:12;;;;;;;17.35;10.23;;;;;16.10;98237.00;;;;5013934;28;20467;-73
2023/07/03 03:57:39;;;;;;;18.95;11.65;;;;;16.00;98235.00;;;;5030622;28;20081;-73
2023/07/03 04:00:15;;;;;;;20.42;11.38;;;;;16.10;98233.00;;;;4997171;28;20100;-73
2023/07/03 04:02:43;;;;;;;23.52;13.90;;;;;16.00;98244.00;;;;5030487;28;20050;-72
2023/07/03 04:05:11;;;;;;;24.80;12.05;;;;;16.00;98250.00;;;;4997559;28;20176;-73
2023/07/03 04:07:38;;;;;;;20.98;10.95;;;;;16.20;98248.00;;;;5013725;28;20045;-72
2023/07/03 04:10:06;;;;;;;21.70;10.85;;;;;16.20;98258.00;;;;5014209;28;20052;-73
2023/07/03 04:12:32;;;;;;;20.92;10.48;;;;;16.30;98261.00;;;;5013158;28;20050;-73
2023/07/03 04:15:00;;;;;;;17.88;10.00;;;;;16.30;98268.00;;;;5013178;28;20085;-72
2023/07/03 04:17:26;;;;;;;17.98;10.90;;;;;16.30;98261.00;;;;5013341;28;20077;-73
2023/07/03 04:19:53;;;;;;;18.42;10.77;;;;;16.30;98272.00;;;;5013977;28;20049;-72
2023/07/03 04:22:20;;;;;;;35.38;14.40;;;;;16.30;98252.00;;;;5014289;28;20115;-73
2023/07/03 04:24:47;;;;;;;22.73;11.02;;;;;16.40;98248.00;;;;4996852;28;20521;-73
2023/07/03 04:27:14;;;;;;;19.73;11.02;;;;;16.50;98259.00;;;;5029552;28;20050;-72
2023/07/03 04:29:41;;;;;;;20.65;11.02;;;;;16.60;98254.00;;;;5012573;28;20050;-73
2023/07/03 04:32:08;;;;;;;21.27;11.05;;;;;16.80;98259.00;;;;4996674;28;20054;-74
2023/07/03 04:34:35;;;;;;;22.65;10.75;;;;;16.90;98263.00;;;;5014098;28;20092;-73
2023/07/03 04:37:03;;;;;;;18.70;10.52;;;;;16.90;98267.00;;;;5014194;28;20050;-73
2023/07/03 04:39:31;;;;;;;19.63;11.00;;;;;17.00;98280.00;;;;5013583;28;20069;-72
2023/07/03 04:42:00;;;;;;;19.85;10.52;;;;;17.10;98281.00;;;;5012861;28;20046;-73
2023/07/03 04:44:27;;;;;;;25.92;11.98;;;;;17.20;98282.00;;;;5013900;28;20052;-74
2023/07/03 04:46:58;;;;;;;20.05;10.82;;;;;17.30;98286.00;;;;5029088;28;20054;-73
2023/07/03 04:49:29;;;;;;;21.55;11.93;;;;;17.40;98285.00;;;;5013465;28;20463;-73
2023/07/03 04:51:55;;;;;;;22.58;11.25;;;;;17.50;98290.00;;;;5013994;28;20132;-71
2023/07/03 04:54:22;;;;;;;20.63;10.30;;;;;17.60;98294.00;;;;5012519;28;20052;-71
2023/07/03 04:56:49;;;;;;;26.13;11.77;;;;;17.70;98293.00;;;;5012561;28;20053;-71
2023/07/03 04:59:15;;;;;;;19.65;10.52;;;;;17.80;98293.00;;;;5011933;28;20041;-72
2023/07/03 05:01:42;;;;;;;18.65;10.40;;;;;17.90;98297.00;;;;5013730;28;20077;-72
2023/07/03 05:04:10;;;;;;;25.35;11.13;;;;;18.00;98294.00;;;;5013378;28;20104;-73
2023/07/03 05:06:37;;;;;;;21.77;11.02;;;;;18.10;98292.00;;;;5012220;28;20091;-72
2023/07/03 05:09:05;;;;;;;22.40;10.70;;;;;18.10;98306.00;;;;5011583;28;20069;-72
2023/07/03 05:11:33;;;;;;;18.95;9.57;;;;;18.10;98306.00;;;;5028510;28;20038;-73
2023/07/03 05:14:00;;;;;;;20.48;9.35;;;;;18.00;98296.00;;;;5028483;28;20140;-72
2023/07/03 05:16:27;;;;;;;21.42;9.05;;;;;18.10;98305.00;;;;5013322;28;20380;-72
2023/07/03 05:18:53;;;;;;;17.27;8.35;;;;;18.10;98307.00;;;;5012223;28;20046;-72
2023/07/03 05:21:20;;;;;;;17.27;8.13;;;;;18.10;98314.00;;;;5011313;28;20052;-71
2023/07/03 05:23:46;;;;;;;17.60;7.53;;;;;18.20;98314.00;;;;5028328;28;20136;-73
2023/07/03 05:26:13;;;;;;;17.30;7.43;;;;;18.30;98315.00;;;;5027334;28;20038;-72
2023/07/03 05:28:40;;;;;;;15.60;7.53;;;;;18.40;98323.00;;;;5028466;28;20048;-72
2023/07/03 05:31:06;;;;;;;16.75;7.60;;;;;18.40;98322.00;;;;5012523;28;20056;-73
2023/07/03 05:33:33;;;;;;;19.35;7.38;;;;;18.40;98324.00;;;;4995626;28;20054;-71
2023/07/03 05:36:01;;;;;;;16.55;6.72;;;;;18.60;98317.00;;;;5013121;28;20122;-73
2023/07/03 05:38:28;;;;;;;15.23;6.93;;;;;18.70;98326.00;;;;5028300;28;20046;-71
2023/07/03 05:40:55;;;;;;;25.80;5.80;;;;;18.70;98331.00;;;;5012379;28;20046;-71
2023/07/03 05:43:22;;;;;;;18.83;7.22;;;;;18.60;98330.00;;;;5013476;28;20045;-73
2023/07/03 05:45:49;;;;;;;20.17;7.18;;;;;18.70;98334.00;;;;5028278;28;20117;-73
2023/07/03 05:48:16;;;;;;;14.98;5.97;;;;;18.80;98339.00;;;;5027984;28;20073;-72
2023/07/03 05:50:44;;;;;;;14.93;5.90;;;;;18.70;98340.00;;;;5010902;28;20073;-72
2023/07/03 05:53:11;;;;;;;16.50;6.07;;;;;18.70;98348.00;;;;5011496;28;20534;-75
2023/07/03 05:55:38;;;;;;;19.42;4.95;;;;;18.70;98351.00;;;;5012758;28;20049;-71
2023/07/03 05:58:04;;;;;;;13.27;5.18;;;;;18.60;98345.00;;;;5012761;28;20038;-71
2023/07/03 06:00:31;;;;;;;17.60;6.13;;;;;18.70;98343.00;;;;5010878;28;20054;-71
2023/07/03 06:02:59;;;;;;;15.02;5.43;;;;;18.80;98352.00;;;;5012855;28;20034;-71
2023/07/03 06:05:26;;;;;;;18.10;5.35;;;;;18.80;98348.00;;;;5012465;28;20521;-72
2023/07/03 06:07:52;;;;;;;12.70;5.22;;;;;18.90;98342.00;;;;5012574;28;20421;-72
2023/07/03 06:10:19;;;;;;;15.10;5.75;;;;;19.00;98350.00;;;;5010980;28;20408;-74
2023/07/03 06:12:46;;;;;;;12.63;4.75;;;;;19.00;98352.00;;;;5011386;28;20129;-73
2023/07/03 06:15:12;;;;;;;12.52;4.43;;;;;19.00;98343.00;;;;5027729;28;20100;-73
2023/07/03 06:17:40;;;;;;;19.40;5.60;;;;;18.90;98340.00;;;;5027662;28;20041;-73
2023/07/03 06:20:08;;;;;;;12.77;5.28;;;;;18.80;98347.00;;;;5011962;28;20041;-72
2023/07/03 06:22:39;;;;;;;18.30;5.13;;;;;18.90;98343.00;;;;5011743;28;20121;-72
2023/07/03 06:25:06;;;;;;;19.75;5.32;;;;;19.10;98348.00;;;;5012708;28;20042;-73
2023/07/03 06:27:33;;;;;;;15.35;5.00;;;;;19.10;98342.00;;;;5027587;28;20048;-73
2023/07/03 06:30:00;;;;;;;17.63;4.68;;;;;19.40;98340.00;;;;5011996;28;20092;-74
2023/07/03 06:32:26;;;;;;;16.52;4.70;;;;;19.60;98347.00;;;;5012995;28;20128;-73
2023/07/03 06:34:53;;;;;;;14.30;4.45;;;;;19.60;98351.00;;;;5011188;28;20045;-72
2023/07/03 06:37:20;;;;;;;16.35;4.85;;;;;19.60;98369.00;;;;5015062;28;20049;-74
2023/07/03 06:39:46;;;;;;;15.27;4.72;;;;;19.60;98370.00;;;;5015773;28;20554;-73
2023/07/03 06:42:13;;;;;;;12.57;4.65;;;;;19.60;98364.00;;;;5031557;28;20494;-73
2023/07/03 06:44:43;;;;;;;10.30;4.00;;;;;19.70;98360.00;;;;5015140;28;20069;-72
2023/07/03 06:47:10;;;;;;;13.27;4.70;;;;;19.70;98368.00;;;;5016527;28;20052;-73
2023/07/03 06:49:37;;;;;;;10.23;4.38;;;;;19.80;98360.00;;;;5014643;28;20092;-73
2023/07/03 06:52:04;;;;;;;12.55;4.53;;;;;19.80;98373.00;;;;5014658;28;20137;-73
2023/07/03 06:54:31;;;;;;;21.42;4.63;;;;;19.70;98372.00;;;;5015924;28;20410;-73
2023/07/03 06:56:57;;;;;;;16.30;4.72;;;;;19.80;98376.00;;;;5014778;28;20049;-73
2023/07/03 06:59:24;;;;;;;16.83;4.50;;;;;19.90;98369.00;;;;5015413;28;20042;-73
2023/07/03 07:01:50;;;;;;;11.73;4.40;;;;;20.00;98367.00;;;;5014303;28;20046;-73
2023/07/03 07:04:17;;;;;;;9.60;4.93;;;;;20.10;98379.00;;;;5014793;28;20454;-73
2023/07/03 07:06:44;;;;;;;15.13;4.97;;;;;20.10;98365.00;;;;5030993;28;20064;-73
2023/07/03 07:09:11;;;;;;;11.40;4.32;;;;;20.20;98373.00;;;;5030413;28;20069;-75
2023/07/03 07:11:38;;;;;;;11.57;4.30;;;;;20.20;98374.00;;;;5015924;28;20048;-73
2023/07/03 07:14:05;;;;;;;11.20;4.03;;;;;20.20;98369.00;;;;5015724;28;20060;-73
2023/07/03 07:16:35;;;;;;;7.47;3.28;;;;;20.20;98370.00;;;;5015933;28;20128;-73
2023/07/03 07:19:04;;;;;;;11.43;3.00;;;;;20.30;98373.00;;;;5015119;28;20068;-73
2023/07/03 07:21:34;;;;;;;7.78;2.92;;;;;20.40;98376.00;;;;5015834;28;20056;-73
2023/07/03 07:24:10;;;;;;;15.60;3.42;;;;;20.50;98382.00;;;;5030895;28;20050;-73
2023/07/03 07:26:37;;;;;;;6.30;3.03;;;;;20.40;98380.00;;;;5016043;28;20474;-73
2023/07/03 07:29:03;;;;;;;11.00;3.90;;;;;20.50;98373.00;;;;5015983;28;20157;-73
2023/07/03 07:31:36;;;;;;;7.47;3.20;;;;;20.50;98357.00;;;;5014727;28;20125;-73
2023/07/03 07:34:09;;;;;;;7.78;3.30;;;;;20.80;98364.00;;;;5014264;28;20038;-73
2023/07/03 07:36:38;;;;;;;5.80;2.92;;;;;20.90;98373.00;;;;5015719;28;20502;-73
2023/07/03 07:39:05;;;;;;;12.70;3.72;;;;;20.90;98368.00;;;;4997442;28;20105;-73
2023/07/03 07:41:32;;;;;;;10.88;3.70;;;;;20.90;98363.00;;;;5015403;28;20042;-73
2023/07/03 07:43:59;;;;;;;8.82;2.90;;;;;20.90;98364.00;;;;5014869;28;20048;-73
2023/07/03 07:46:29;;;;;;;9.32;3.33;;;;;20.80;98373.00;;;;5030065;28;20141;-73
2023/07/03 07:48:57;;;;;;;10.30;2.83;;;;;20.70;98369.00;;;;5012958;28;20045;-72
2023/07/03 07:51:25;;;;;;;8.23;3.20;;;;;20.50;98383.00;;;;5014265;28;20073;-72
2023/07/03 07:53:53;;;;;;;8.10;3.53;;;;;20.30;98389.00;;;;5017094;28;20068;-69
2023/07/03 07:56:21;;;;;;;9.48;3.28;;;;;20.10;98392.00;;;;5014544;28;20050;-69
2023/07/03 07:58:48;;;;;;;12.77;3.75;;;;;19.90;98387.00;;;;5037191;28;20058;-70
2023/07/03 08:01:15;;;;;;;8.75;3.30;;;;;19.80;98397.00;;;;5025734;28;20038;-70
2023/07/03 08:03:43;;;;;;;9.30;3.17;;;;;19.70;98394.00;;;;5026254;28;20068;-70
2023/07/03 08:06:10;;;;;;;11.73;3.35;;;;;19.70;98405.00;;;;5026874;28;20110;-70
2023/07/03 08:08:37;;;;;;;8.82;3.58;;;;;19.70;98395.00;;;;5033769;28;20380;-70
2023/07/03 08:11:06;;;;;;;7.28;3.13;;;;;19.90;98400.00;;;;5035753;28;20415;-70
2023/07/03 08:13:34;;;;;;;12.18;3.70;;;;;19.90;98399.00;;;;5026848;28;20145;-70
2023/07/03 08:16:01;;;;;;;9.45;3.10;;;;;19.90;98408.00;;;;5025498;28;20153;-70
2023/07/03 08:18:28;;;;;;;10.70;3.67;;;;;19.90;98404.00;;;;5025550;28;20069;-71
2023/07/03 08:20:54;;;;;;;7.53;3.70;;;;;19.80;98413.00;;;;5023885;28;20050;-71
2023/07/03 08:23:21;;;;;;;12.13;3.97;;;;;19.90;98398.00;;;;5023063;28;20056;-71
2023/07/03 08:25:54;;;;;;;14.52;4.20;;;;;20.10;98402.00;;;;5024511;28;20073;-71
2023/07/03 08:28:22;;;;;;;7.15;3.47;;;;;20.40;98407.00;;;;5022315;28;20041;-70
2023/07/03 08:30:48;;;;;;;8.40;2.85;;;;;20.50;98407.00;;;;5016385;28;20074;-71
2023/07/03 08:33:15;;;;;;;13.10;3.97;;;;;20.50;98406.00;;;;5017778;28;20137;-70
2023/07/03 08:35:42;;;;;;;8.43;3.50;;;;;20.50;98419.00;;;;5022675;28;20053;-69
2023/07/03 08:38:12;;;;;;;7.90;3.40;;;;;20.30;98407.00;;;;5024495;28;20069;-69
2023/07/03 08:40:39;;;;;;;7.47;3.70;;;;;20.30;98407.00;;;;5039946;28;20042;-69
2023/07/03 08:43:16;;;;;;;7.72;3.00;;;;;20.50;98408.00;;;;5024501;28;20101;-68
2023/07/03 08:45:46;;;;;;;12.07;4.10;;;;;20.70;98408.00;;;;5037035;28;20045;-69
2023/07/03 08:48:24;;;;;;;12.27;3.17;;;;;20.80;98415.00;;;;5020090;28;20049;-69
2023/07/03 08:50:54;;;;;;;5.55;2.78;;;;;20.90;98405.00;;;;5020022;28;20046;-69
2023/07/03 08:53:26;;;;;;;9.55;3.20;;;;;21.10;98408.00;;;;5019323;28;20101;-68
2023/07/03 08:56:06;;;;;;;8.80;3.17;;;;;21.20;98401.00;;;;5021279;28;20046;-69
2023/07/03 08:58:32;;;;;;;11.80;3.55;;;;;21.20;98398.00;;;;5020285;28;20110;-69
2023/07/03 09:01:04;;;;;;;7.53;3.15;;;;;21.20;98401.00;;;;5019001;28;20387;-69
2023/07/03 09:03:57;;;;;;;6.72;2.45;;;;;21.50;98404.00;;;;5020891;28;20044;-69
2023/07/03 09:06:47;;;;;;;7.70;2.90;;;;;21.80;98407.00;;;;5020578;28;20071;-69
2023/07/03 09:09:42;;;;;;;13.60;3.72;;;;;22.00;98411.00;;;;5035014;28;20084;-69
2023/07/03 09:12:22;;;;;;;;;;;;;22.10;98407.00;;;;5020236;28;20569;-69
2023/07/03 09:15:04;;;;;;;8.75;3.42;;;;;22.10;98395.00;;;;5019660;28;19985;-70
2023/07/03 09:17:33;;;;;;;7.05;3.50;;;;;22.00;98403.00;;;;5019553;28;20060;-69
2023/07/03 09:20:03;;;;;;;8.98;3.03;;;;;22.00;98396.00;;;;5017262;28;20054;-69
2023/07/03 09:23:09;;;;;;;9.82;3.42;;;;;22.20;98398.00;;;;5019518;28;20046;-69
2023/07/03 09:25:47;;;;;;;12.80;3.00;;;;;22.30;98410.00;;;;5020370;28;20048;-69
2023/07/03 09:28:16;;;;;;;6.70;2.75;;;;;22.20;98401.00;;;;5021511;28;20049;-69
2023/07/03 09:30:43;;;;;;;9.73;3.00;;;;;22.00;98395.00;;;;5022681;28;20050;-68
2023/07/03 09:33:10;;;;;;;9.68;3.38;;;;;22.10;98405.00;;;;5037799;28;20115;-69
2023/07/03 09:35:41;;;;;;;6.88;3.00;;;;;22.10;98411.00;;;;5020422;28;20125;-69
2023/07/03 09:38:12;;;;;;;6.78;3.13;;;;;22.10;98410.00;;;;5018179;28;20410;-69
2023/07/03 09:40:42;;;;;;;11.25;3.17;;;;;22.10;98408.00;;;;5013640;28;20466;-69
2023/07/03 09:43:17;;;;;;;10.00;3.22;;;;;22.10;98417.00;;;;5012540;28;20042;-69
2023/07/03 09:45:44;;;;;;;7.97;3.00;;;;;22.20;98425.00;;;;5013018;28;20088;-68
2023/07/03 09:48:31;;;;;;;10.02;3.47;;;;;22.20;98418.00;;;;5013223;28;20038;-70
2023/07/03 09:50:58;;;;;;;6.78;2.88;;;;;22.10;98422.00;;;;5012480;28;20041;-69
2023/07/03 09:53:38;;;;;;;12.35;3.20;;;;;22.10;98405.00;;;;5013032;28;20517;-69
2023/07/03 09:56:12;;;;;;;10.18;3.30;;;;;22.40;98410.00;;;;5012743;28;20046;-70
2023/07/03 09:58:45;;;;;;;7.22;3.00;;;;;22.70;98398.00;;;;5012976;28;20493;-69
2023/07/03 10:01:20;;;;;;;10.55;3.25;;;;;22.90;98397.00;;;;5012453;28;20117;-70
2023/07/03 10:04:10;;;;;;;8.70;2.90;;;;;23.00;98394.00;;;;5012548;28;20037;-71
2023/07/03 10:06:43;;;;;;;7.45;2.90;;;;;23.00;98401.00;;;;5012821;28;20394;-72
2023/07/03 10:09:25;;;;;;;6.40;2.95;;;;;23.10;98398.00;;;;5011720;28;20056;-70
2023/07/03 10:12:02;;;;;;;7.72;3.28;;;;;22.90;98400.00;;;;5010748;28;20049;-71
2023/07/03 10:14:54;;;;;;;6.13;2.75;;;;;22.80;98411.00;;;;5012563;28;20372;-70
2023/07/03 10:17:28;;;;;;;8.55;3.22;;;;;22.60;98406.00;;;;5012602;28;20077;-71
2023/07/03 10:20:00;;;;;;;7.22;3.28;;;;;22.50;98411.00;;;;4993297;28;20050;-72
2023/07/03 10:22:28;;;;;;;6.60;2.60;;;;;22.50;98412.00;;;;4991551;28;20414;-71
2023/07/03 10:25:01;;;;;;;8.27;3.42;;;;;22.60;98404.00;;;;4992588;28;20049;-71
2023/07/03 10:27:29;;;;;;;6.75;3.17;;;;;22.80;98406.00;;;;4992815;28;20454;-71
2023/07/03 10:29:56;;;;;;;5.28;2.47;;;;;22.90;98411.00;;;;4992121;28;20446;-70
2023/07/03 10:32:27;;;;;;;6.97;2.83;;;;;22.90;98418.00;;;;5007949;28;20050;-70
2023/07/03 10:34:53;;;;;;;5.45;2.65;;;;;22.90;98410.00;;;;4992754;28;20039;-70
2023/07/03 10:37:22;;;;;;;5.38;2.90;;;;;23.10;98403.00;;;;4991650;28;20557;-70
2023/07/03 10:40:15;;;;;;;5.97;2.80;;;;;23.30;98406.00;;;;4991880;28;20482;-70
2023/07/03 10:42:48;;;;;;;7.93;3.22;;;;;23.20;98414.00;;;;4992681;28;20035;-69
2023/07/03 10:45:15;;;;;;;7.05;3.15;;;;;23.00;98422.00;;;;4992513;28;20461;-70
2023/07/03 10:47:52;;;;;;;6.93;2.95;;;;;23.00;98414.00;;;;4992472;28;20070;-71
2023/07/03 10:50:26;;;;;;;10.02;3.08;;;;;23.00;98416.00;;;;4991516;28;20050;-69
2023/07/03 10:53:12;;;;;;;8.38;3.55;;;;;23.10;98407.00;;;;5007421;28;20422;-70
2023/07/03 10:55:45;;;;;;;7.90;2.95;;;;;23.30;98411.00;;;;4990980;28;20070;-71
2023/07/03 10:58:31;;;;;;;7.57;3.08;;;;;23.30;98408.00;;;;5007532;28;20146;-72
2023/07/03 11:01:06;;;;;;;8.38;3.13;;;;;23.20;98412.00;;;;4991850;28;20043;-69
2023/07/03 11:04:02;;;;;;;5.72;3.50;;;;;23.10;98409.00;;;;4991218;28;20050;-71
2023/07/03 11:07:12;;;;;;;7.88;2.80;;;;;23.00;98405.00;;;;5005030;28;20042;-70
2023/07/03 11:09:58;;;;;;;7.50;2.67;;;;;22.90;98404.00;;;;4974957;28;20046;-70
2023/07/03 11:12:25;;;;;;;6.50;2.47;;;;;22.80;98402.00;;;;5007573;28;20145;-71
2023/07/03 11:15:12;;;;;;;8.18;3.03;;;;;22.90;98403.00;;;;4992265;28;20451;-70
2023/07/03 11:18:26;;;;;;;10.85;3.42;;;;;22.70;98401.00;;;;4992519;28;20448;-70
2023/07/03 11:21:10;;;;;;;6.38;3.40;;;;;22.50;98405.00;;;;4950780;29;20062;-70
2023/07/03 11:23:54;;;;;;;5.90;2.60;;;;;22.30;98408.00;;;;4993840;28;20402;-70
2023/07/03 11:26:26;;;;;;;;;;;;;22.20;98416.00;;;;4995867;28;20039;-70
2023/07/03 11:28:56;;;;;;;5.35;2.83;;;;;21.90;98412.00;;;;4995071;28;19922;-69
2023/07/03 11:31:25;;;;;;;8.82;3.20;;;;;21.90;98404.00;;;;4995834;28;20456;-69
2023/07/03 11:33:53;;;;;;;5.30;2.92;;;;;22.10;98409.00;;;;4994371;28;20050;-69
2023/07/03 11:36:34;;;;;;;5.70;2.97;;;;;22.30;98398.00;;;;4994642;28;20053;-69
2023/07/03 11:39:24;;;;;;;5.90;2.50;;;;;22.50;98405.00;;;;4995982;28;20182;-70
2023/07/03 11:42:01;;;;;;;5.05;2.80;;;;;22.70;98414.00;;;;4995662;28;20454;-69
2023/07/03 11:44:43;;;;;;;7.03;2.88;;;;;22.90;98404.00;;;;4994029;28;20049;-69
2023/07/03 11:47:15;;;;;;;8.43;4.35;;;;;23.20;98413.00;;;;4995171;28;20049;-69
2023/07/03 11:50:01;;;;;;;7.13;3.13;;;;;23.30;98404.00;;;;4993596;28;20117;-70
2023/07/03 11:52:30;;;;;;;7.35;3.03;;;;;23.20;98407.00;;;;4995281;28;20050;-69
2023/07/03 11:55:05;;;;;;;6.57;3.28;;;;;23.20;98415.00;;;;5010254;28;20406;-70
2023/07/03 11:57:34;;;;;;;7.13;2.60;;;;;23.30;98398.00;;;;4995258;28;20039;-69
2023/07/03 12:00:29;;;;;;;8.02;3.10;;;;;23.60;98402.00;;;;4995020;28;20113;-70
2023/07/03 12:03:06;;;;;;;7.95;2.90;;;;;23.90;98408.00;;;;5008325;28;20097;-70
2023/07/03 12:05:46;;;;;;;7.28;2.72;;;;;24.10;98406.00;;;;5010184;28;20423;-71
2023/07/03 12:08:22;;;;;;;6.00;2.90;;;;;24.10;98402.00;;;;4994909;28;20056;-70
2023/07/03 12:10:49;;;;;;;4.03;2.78;;;;;24.10;98403.00;;;;4994742;28;20074;-71
2023/07/03 12:13:43;;;;;;;8.45;3.20;;;;;23.90;98416.00;;;;4993826;28;20392;-70
2023/07/03 12:16:20;;;;;;;5.55;2.70;;;;;23.60;98408.00;;;;4993459;28;20088;-70
2023/07/03 12:19:03;;;;;;;3.53;2.50;;;;;23.50;98410.00;;;;4994849;28;20050;-71
2023/07/03 12:21:49;;;;;;;5.18;2.42;;;;;23.50;98400.00;;;;5009917;28;20050;-70
2023/07/03 12:24:28;;;;;;;4.55;2.40;;;;;23.40;98415.00;;;;4977502;28;20561;-70
2023/07/03 12:27:04;;;;;;;6.72;3.47;;;;;23.30;98416.00;;;;4995126;28;20690;-70